Liguria — IRKJ — position and weather

sailwx.info

Track history (hours):
 
Tides and Currents Weather Stations Pressure Air Temp Water Temp Dewpoint Dewpoint Depression Visibility Wind Speed Wind Dir Waves Ship Positions

Liguria

Last reported at 2014-Oct-31 18:33 UTC. Time now 2014-Nov-01 06:56 UTC.
Position N 44°18' E 008°29'.

Length 30 m.

Type: Tug. MMSI: 247228500.

Date/timePositionNaut miles runAvg speedWind from/ knotsBaromVisibWave heightAir tempDewpointWater temp
2014-Oct-31 18:33N 44°18' E 008°29'0 0.0
2014-Oct-31 15:18N 44°18' E 008°29'0 0.0
2014-Oct-31 07:33N 44°18' E 008°29'0 0.4
2014-Oct-31 06:33N 44°19' E 008°30'0 0.0
2014-Oct-30 22:33N 44°18' E 008°29'1 0.4
2014-Oct-30 21:15N 44°19' E 008°30'1 0.5
2014-Oct-30 20:04N 44°18' E 008°29'0 0.0
2014-Oct-30 19:25N 44°18' E 008°29'0 0.0
2014-Oct-30 18:24N 44°18' E 008°29'0 0.0
2014-Oct-30 06:11N 44°19' E 008°29'1 0.7
2014-Oct-30 05:14N 44°19' E 008°30'1 0.1
2014-Oct-29 18:30N 44°18' E 008°29'0 0.0
2014-Oct-29 17:18N 44°18' E 008°29'0 0.0
2014-Oct-29 15:24N 44°18' E 008°29'0 0.0
2014-Oct-29 14:24N 44°18' E 008°29'0 0.0
2014-Oct-29 11:30N 44°18' E 008°29'0 0.0
2014-Oct-29 10:15N 44°18' E 008°29'0 0.0
2014-Oct-29 07:21N 44°18' E 008°29'0 0.0
2014-Oct-29 06:24N 44°18' E 008°29'1 0.0
2014-Oct-28 13:21N 44°19' E 008°30'1 0.4
2014-Oct-28 11:13N 44°18' E 008°29'0 0.1
2014-Oct-28 07:30N 44°19' E 008°30'0 0.4
2014-Oct-28 06:32N 44°18' E 008°29'0 0.0
2014-Oct-27 11:17N 44°18' E 008°29'2 1.3
2014-Oct-27 09:28N 44°16' E 008°28'0 0.2
2014-Oct-27 08:15N 44°16' E 008°28'1 0.7
2014-Oct-27 07:31N 44°16' E 008°27'4 0.2
2014-Oct-26 17:07N 44°19' E 008°30'1 0.1
2014-Oct-26 11:28N 44°18' E 008°29'0 0.0
2014-Oct-26 08:04N 44°18' E 008°29'0 0.1
2014-Oct-26 07:33N 44°19' E 008°29'0 0.0
2014-Oct-26 03:26N 44°18' E 008°29'0 0.0
2014-Oct-26 02:31N 44°18' E 008°29'0 0.0
2014-Oct-26 01:23N 44°18' E 008°29'0 0.0
2014-Oct-26 00:28N 44°18' E 008°29'0 0.0
2014-Oct-25 23:26N 44°18' E 008°29'0 0.0
2014-Oct-25 15:33N 44°19' E 008°30'0 0.1
2014-Oct-25 13:18N 44°19' E 008°30'1 0.3
2014-Oct-25 11:06N 44°18' E 008°29'0 0.0
2014-Oct-25 07:15N 44°18' E 008°29'0 0.0
2014-Oct-25 04:12N 44°18' E 008°29'0 0.0
2014-Oct-25 03:30N 44°18' E 008°29'0 0.0
2014-Oct-24 17:27N 44°19' E 008°29'3 3.5
2014-Oct-24 16:33N 44°16' E 008°27'3 0.2
2014-Oct-24 04:04N 44°18' E 008°29'0 0.0
2014-Oct-24 02:25N 44°18' E 008°29'0 0.0
2014-Oct-24 01:28N 44°18' E 008°29'0 0.0
2014-Oct-24 00:28N 44°18' E 008°29'0 0.0
2014-Oct-23 16:07N 44°18' E 008°29'0 0.0
2014-Oct-23 06:28N 44°18' E 008°29'0 0.0
2014-Oct-22 16:05N 44°18' E 008°29'0 0.0
2014-Oct-22 15:32N 44°18' E 008°29'0 0.0
2014-Oct-22 11:32N 44°18' E 008°29'0 0.0
2014-Oct-22 07:32N 44°18' E 008°29'1 0.4
2014-Oct-22 05:26N 44°19' E 008°30'1 0.1
2014-Oct-21 19:23N 44°18' E 008°29'  
Track history (hours):
 
Tides and Currents Weather Stations Pressure Air Temp Water Temp Dewpoint Dewpoint Depression Visibility Wind Speed Wind Dir Waves Ship Positions

Liguria

Last reported at 2014-Oct-31 18:33 UTC. Time now 2014-Nov-01 06:56 UTC.
Position N 44°18' E 008°29'.

Length 30 m.

Type: Tug. MMSI: 247228500.

Date/timePositionNaut miles runAvg speedWind from/ knotsBaromVisibWave heightAir tempDewpointWater temp
2014-Oct-31 18:33N 44°18' E 008°29'0 0.0
2014-Oct-31 15:18N 44°18' E 008°29'0 0.0
2014-Oct-31 07:33N 44°18' E 008°29'0 0.4
2014-Oct-31 06:33N 44°19' E 008°30'0 0.0
2014-Oct-30 22:33N 44°18' E 008°29'1 0.4
2014-Oct-30 21:15N 44°19' E 008°30'1 0.5
2014-Oct-30 20:04N 44°18' E 008°29'0 0.0
2014-Oct-30 19:25N 44°18' E 008°29'0 0.0
2014-Oct-30 18:24N 44°18' E 008°29'0 0.0
2014-Oct-30 06:11N 44°19' E 008°29'1 0.7
2014-Oct-30 05:14N 44°19' E 008°30'1 0.1
2014-Oct-29 18:30N 44°18' E 008°29'0 0.0
2014-Oct-29 17:18N 44°18' E 008°29'0 0.0
2014-Oct-29 15:24N 44°18' E 008°29'0 0.0
2014-Oct-29 14:24N 44°18' E 008°29'0 0.0
2014-Oct-29 11:30N 44°18' E 008°29'0 0.0
2014-Oct-29 10:15N 44°18' E 008°29'0 0.0
2014-Oct-29 07:21N 44°18' E 008°29'0 0.0
2014-Oct-29 06:24N 44°18' E 008°29'1 0.0
2014-Oct-28 13:21N 44°19' E 008°30'1 0.4
2014-Oct-28 11:13N 44°18' E 008°29'0 0.1
2014-Oct-28 07:30N 44°19' E 008°30'0 0.4
2014-Oct-28 06:32N 44°18' E 008°29'0 0.0
2014-Oct-27 11:17N 44°18' E 008°29'2 1.3
2014-Oct-27 09:28N 44°16' E 008°28'0 0.2
2014-Oct-27 08:15N 44°16' E 008°28'1 0.7
2014-Oct-27 07:31N 44°16' E 008°27'4 0.2
2014-Oct-26 17:07N 44°19' E 008°30'1 0.1
2014-Oct-26 11:28N 44°18' E 008°29'0 0.0
2014-Oct-26 08:04N 44°18' E 008°29'0 0.1
2014-Oct-26 07:33N 44°19' E 008°29'0 0.0
2014-Oct-26 03:26N 44°18' E 008°29'0 0.0
2014-Oct-26 02:31N 44°18' E 008°29'0 0.0
2014-Oct-26 01:23N 44°18' E 008°29'0 0.0
2014-Oct-26 00:28N 44°18' E 008°29'0 0.0
2014-Oct-25 23:26N 44°18' E 008°29'0 0.0
2014-Oct-25 15:33N 44°19' E 008°30'0 0.1
2014-Oct-25 13:18N 44°19' E 008°30'1 0.3
2014-Oct-25 11:06N 44°18' E 008°29'0 0.0
2014-Oct-25 07:15N 44°18' E 008°29'0 0.0
2014-Oct-25 04:12N 44°18' E 008°29'0 0.0
2014-Oct-25 03:30N 44°18' E 008°29'0 0.0
2014-Oct-24 17:27N 44°19' E 008°29'3 3.5
2014-Oct-24 16:33N 44°16' E 008°27'3 0.2
2014-Oct-24 04:04N 44°18' E 008°29'0 0.0
2014-Oct-24 02:25N 44°18' E 008°29'0 0.0
2014-Oct-24 01:28N 44°18' E 008°29'0 0.0
2014-Oct-24 00:28N 44°18' E 008°29'0 0.0
2014-Oct-23 16:07N 44°18' E 008°29'0 0.0
2014-Oct-23 06:28N 44°18' E 008°29'0 0.0
2014-Oct-22 16:05N 44°18' E 008°29'0 0.0
2014-Oct-22 15:32N 44°18' E 008°29'0 0.0
2014-Oct-22 11:32N 44°18' E 008°29'0 0.0
2014-Oct-22 07:32N 44°18' E 008°29'1 0.4
2014-Oct-22 05:26N 44°19' E 008°30'1 0.1
2014-Oct-21 19:23N 44°18' E 008°29'  

Dump ship's entire track history